createdAt,value
2022-11-17T00:02:54.876Z,6.3
2022-11-17T00:08:02.667Z,6.3
2022-11-17T00:13:10.618Z,6.3
2022-11-17T00:18:18.612Z,6.3
2022-11-17T00:23:26.561Z,6.3
2022-11-17T00:28:34.703Z,6.3
2022-11-17T00:33:42.502Z,6.3
2022-11-17T00:38:50.454Z,6.3
2022-11-17T00:43:58.407Z,6.3
2022-11-17T00:54:14.476Z,6.3
2022-11-17T00:59:20.692Z,6.3
2022-11-17T01:04:27.071Z,6.3
2022-11-17T01:09:35.141Z,6.4
2022-11-17T01:14:43.000Z,6.4
2022-11-17T01:24:58.932Z,6.4
2022-11-17T01:30:06.897Z,6.4
2022-11-17T01:35:14.853Z,6.4
2022-11-17T01:40:22.895Z,6.4
2022-11-17T01:45:30.783Z,6.4
2022-11-17T01:50:38.741Z,6.4
2022-11-17T02:06:02.779Z,6.4
2022-11-17T02:11:10.599Z,6.4
2022-11-17T02:16:18.579Z,6.4
2022-11-17T02:21:26.650Z,6.4
2022-11-17T02:26:34.495Z,6.4
2022-11-17T02:31:42.490Z,6.4
2022-11-17T02:41:58.520Z,6.4
2022-11-17T02:47:06.357Z,6.5
2022-11-17T02:52:14.322Z,6.5
2022-11-17T02:57:22.401Z,6.5
2022-11-17T03:02:30.259Z,6.5
2022-11-17T03:07:38.200Z,6.5
2022-11-17T03:12:46.310Z,6.4
2022-11-17T03:23:02.106Z,6.4
2022-11-17T03:28:10.182Z,6.4
2022-11-17T03:33:18.029Z,6.4
2022-11-17T03:38:26.008Z,6.3
2022-11-17T03:43:34.461Z,6.4
2022-11-17T03:48:41.929Z,6.4
2022-11-17T03:53:49.882Z,6.4
2022-11-17T03:58:57.880Z,6.4
2022-11-17T04:09:13.794Z,6.4
2022-11-17T04:14:21.898Z,6.4
2022-11-17T04:19:29.733Z,6.3
2022-11-17T04:24:37.685Z,6.4
2022-11-17T04:29:45.780Z,6.4
2022-11-17T04:40:01.580Z,6.4
2022-11-17T04:45:09.581Z,6.4
2022-11-17T04:50:17.513Z,6.4
2022-11-17T04:55:25.481Z,6.4
2022-11-17T05:05:41.435Z,6.3
2022-11-17T05:10:49.432Z,6.2
2022-11-17T05:15:57.340Z,6.2
2022-11-17T05:26:13.291Z,6.2
2022-11-17T05:31:21.223Z,6.2
2022-11-17T05:36:29.213Z,6.2
2022-11-17T05:41:37.286Z,6.3
2022-11-17T05:46:45.117Z,6.3
2022-11-17T05:51:53.375Z,6.3
2022-11-17T05:57:01.187Z,6.3
2022-11-17T06:02:09.034Z,6.3
2022-11-17T06:07:17.283Z,6.3
2022-11-17T06:12:24.978Z,6.3
2022-11-17T06:17:32.938Z,6.3
2022-11-17T06:22:45.444Z,6.3
2022-11-17T06:27:48.991Z,6.3
2022-11-17T06:32:56.835Z,6.2
2022-11-17T06:38:04.816Z,6.2
2022-11-17T06:48:20.781Z,6.3
2022-11-17T06:53:28.672Z,6.3
2022-11-17T06:58:37.046Z,6.2
2022-11-17T07:03:44.740Z,6.3
2022-11-17T07:08:52.594Z,6.3
2022-11-17T07:14:00.531Z,6.3
2022-11-17T07:19:08.536Z,6.3
2022-11-17T07:24:16.486Z,6.3
2022-11-17T07:29:24.443Z,6.3
2022-11-17T07:34:32.536Z,6.3
2022-11-17T07:39:40.373Z,6.3
2022-11-17T07:44:48.334Z,6.3
2022-11-17T07:49:56.325Z,6.3
2022-11-17T07:55:04.254Z,6.3
2022-11-17T08:00:12.224Z,6.3
2022-11-17T08:05:20.298Z,6.3
2022-11-17T08:10:28.153Z,6.3
2022-11-17T08:15:36.119Z,6.3
2022-11-17T08:20:44.117Z,6.3
2022-11-17T08:25:52.045Z,6.3
2022-11-17T08:31:00.032Z,6.3
2022-11-17T08:36:08.125Z,6.3
2022-11-17T08:41:15.950Z,6.3
2022-11-17T08:46:23.951Z,6.3
2022-11-17T08:51:32.025Z,6.3
2022-11-17T08:56:40.015Z,6.3
2022-11-17T09:01:47.862Z,6.3
2022-11-17T09:06:55.949Z,6.3
2022-11-17T09:12:03.755Z,6.3
2022-11-17T09:17:11.726Z,6.3
2022-11-17T09:22:20.002Z,6.4
2022-11-17T09:27:26.638Z,6.4
2022-11-17T09:32:34.547Z,6.4
2022-11-17T09:37:42.660Z,6.4
2022-11-17T09:42:50.463Z,6.4
2022-11-17T09:48:12.512Z,6.4
2022-11-17T09:53:06.450Z,6.4
2022-11-17T09:58:14.374Z,6.5
2022-11-17T10:03:22.334Z,6.5
2022-11-17T10:08:30.324Z,6.5
2022-11-17T10:13:38.549Z,6.5
2022-11-17T10:18:46.231Z,6.5
2022-11-17T10:23:54.310Z,6.5
2022-11-17T10:29:08.126Z,6.6
2022-11-17T10:34:10.137Z,6.6
2022-11-17T10:39:18.125Z,6.6
2022-11-17T10:44:26.052Z,6.6
2022-11-17T10:49:34.029Z,6.6
2022-11-17T10:54:42.039Z,6.7
2022-11-17T10:59:56.228Z,6.7
2022-11-17T11:04:56.701Z,6.7
2022-11-17T11:10:03.472Z,6.7
2022-11-17T11:15:10.163Z,6.8
2022-11-17T11:20:16.898Z,6.8
2022-11-17T11:25:23.639Z,6.8
2022-11-17T11:30:31.619Z,6.8
2022-11-17T11:35:38.350Z,6.8
2022-11-17T11:40:45.123Z,6.9
2022-11-17T11:45:51.820Z,6.9
2022-11-17T11:50:58.566Z,6.9
2022-11-17T11:56:05.304Z,6.9
2022-11-17T12:01:12.035Z,7
2022-11-17T12:06:18.758Z,6.9
2022-11-17T12:21:41.438Z,7
2022-11-17T12:26:48.159Z,7
2022-11-17T12:31:54.913Z,7
2022-11-17T12:37:02.913Z,7
2022-11-17T12:42:10.827Z,7
2022-11-17T12:47:18.781Z,7.1
2022-11-17T12:52:26.837Z,7.1
2022-11-17T12:57:34.728Z,7.1
2022-11-17T13:02:42.696Z,7.1
2022-11-17T13:07:50.714Z,7.2
2022-11-17T13:12:58.607Z,7.2
2022-11-17T13:18:06.586Z,7.2
2022-11-17T13:23:14.571Z,7.3
2022-11-17T13:28:22.524Z,7.3
2022-11-17T13:33:34.288Z,7.3
2022-11-17T13:38:38.472Z,7.3
2022-11-17T13:43:46.417Z,7.4
2022-11-17T13:48:54.401Z,7.4
2022-11-17T13:54:02.352Z,7.5
2022-11-17T13:59:10.294Z,7.5
2022-11-17T14:04:20.156Z,7.4
2022-11-17T14:09:26.341Z,7.5
2022-11-17T14:14:34.203Z,7.5
2022-11-17T14:24:50.153Z,7.6
2022-11-17T14:29:58.091Z,7.6
2022-11-17T14:35:06.108Z,7.6
2022-11-17T14:40:14.046Z,7.6
2022-11-17T14:45:21.989Z,7.6
2022-11-17T14:50:29.941Z,7.6
2022-11-17T14:55:37.946Z,7.6
2022-11-17T15:00:45.892Z,7.6
2022-11-17T15:05:53.850Z,7.6
2022-11-17T15:11:01.839Z,7.6
2022-11-17T15:16:09.747Z,7.6
2022-11-17T15:21:17.720Z,7.6
2022-11-17T15:26:25.734Z,7.6
2022-11-17T15:31:33.647Z,7.5
2022-11-17T15:41:49.628Z,7.5
2022-11-17T15:46:57.551Z,7.5
2022-11-17T15:52:05.511Z,7.5
2022-11-17T15:57:13.667Z,7.4
2022-11-17T16:02:21.440Z,7.4
2022-11-17T16:07:29.512Z,7.5
2022-11-17T16:12:37.391Z,7.5
2022-11-17T16:17:45.348Z,7.5
2022-11-17T16:28:01.284Z,7.5
2022-11-17T16:33:09.242Z,7.4
2022-11-17T16:38:17.208Z,7.4
2022-11-17T16:43:25.203Z,7.3
2022-11-17T16:48:33.159Z,7.3
2022-11-17T16:53:41.097Z,7.3
2022-11-17T16:58:49.088Z,7.2
2022-11-17T17:03:57.028Z,7.2
2022-11-17T17:09:05.008Z,7.2
2022-11-17T17:19:20.962Z,7.1
2022-11-17T17:24:27.652Z,7.1
2022-11-17T17:29:34.401Z,7.1
2022-11-17T17:34:42.474Z,7
2022-11-17T17:39:50.325Z,7
2022-11-17T17:44:58.293Z,7
2022-11-17T17:50:06.282Z,7
2022-11-17T17:55:14.228Z,6.9
2022-11-17T18:00:22.198Z,6.9
2022-11-17T18:05:30.177Z,6.9
2022-11-17T18:10:38.115Z,6.9
2022-11-17T18:15:46.079Z,6.8
2022-11-17T18:31:09.979Z,6.8
2022-11-17T18:36:17.951Z,6.7
2022-11-17T18:41:24.675Z,6.7
2022-11-17T18:46:31.453Z,6.7
2022-11-17T18:51:38.151Z,6.7
2022-11-17T18:56:46.106Z,6.7
2022-11-17T19:01:53.036Z,6.6
2022-11-17T19:06:59.630Z,6.6
2022-11-17T19:12:07.554Z,6.6
2022-11-17T19:17:15.545Z,6.6
2022-11-17T19:22:23.496Z,6.6
2022-11-17T19:27:31.450Z,6.5
2022-11-17T19:32:39.442Z,6.5
2022-11-17T19:37:47.389Z,6.5
2022-11-17T19:53:11.314Z,6.5
2022-11-17T19:58:18.011Z,6.5
2022-11-17T20:03:24.745Z,6.4
2022-11-17T20:08:31.503Z,6.3
2022-11-17T20:13:38.223Z,6.4
2022-11-17T20:18:44.954Z,6.3
2022-11-17T20:23:52.957Z,6.2
2022-11-17T20:29:00.912Z,6.3
2022-11-17T20:34:08.852Z,6.3
2022-11-17T20:39:17.126Z,6.2
2022-11-17T20:44:24.783Z,6.2
2022-11-17T20:49:32.746Z,6.2
2022-11-17T20:54:40.720Z,6.2
2022-11-17T20:59:48.668Z,6.2
2022-11-17T21:04:56.631Z,6.1
2022-11-17T21:10:04.637Z,6.1
2022-11-17T21:15:12.582Z,6.1
2022-11-17T21:20:20.531Z,6.1
2022-11-17T21:25:28.524Z,6.1
2022-11-17T21:30:36.487Z,6.1
2022-11-17T21:35:44.423Z,6.1
2022-11-17T21:40:52.440Z,6
2022-11-17T21:46:00.358Z,6
2022-11-17T21:51:08.329Z,6
2022-11-17T21:56:16.336Z,6
2022-11-17T22:01:24.375Z,6
2022-11-17T22:06:32.229Z,6
2022-11-17T22:11:40.222Z,6
2022-11-17T22:16:48.144Z,6
2022-11-17T22:21:56.132Z,5.9
2022-11-17T22:27:04.134Z,5.9
2022-11-17T22:32:12.071Z,5.9
2022-11-17T22:37:20.044Z,5.9
2022-11-17T22:42:28.001Z,5.9
2022-11-17T22:47:35.941Z,5.9
2022-11-17T22:52:43.932Z,5.8
2022-11-17T22:57:51.908Z,5.8
2022-11-17T23:02:59.934Z,5.8
2022-11-17T23:08:09.865Z,5.8
2022-11-17T23:13:15.794Z,5.8
2022-11-17T23:18:23.739Z,5.7
2022-11-17T23:23:31.716Z,5.7
2022-11-17T23:28:39.691Z,5.7
2022-11-17T23:33:47.638Z,5.7
2022-11-17T23:38:55.617Z,5.6
2022-11-17T23:44:03.588Z,5.6
2022-11-17T23:54:19.504Z,5.6
2022-11-17T23:59:27.514Z,5.6
